Time;durP1;ratioP1;P1;durP2;ratioP2;P2;SDS_P1;SDS_P2;PMS_P1;PMS_P2;Temp;Humidity;BMP_temperature;BMP_pressure;BME280_temperature;BME280_humidity;BME280_pressure;Samples;Min_cycle;Max_cycle;Signal;HPM_P1;HPM_P2
2023/01/04 00:01:41;;;;;;;0.30;0.30;;;;;;;12.01;100.00;98977.38;7388444;19;20027;-61
2023/01/04 00:04:08;;;;;;;0.00;0.00;;;;;;;11.94;100.00;98966.72;7388815;19;20011;-61
2023/01/04 00:06:34;;;;;;;1.20;0.93;;;;;;;11.95;100.00;98971.00;7393832;19;20015;-61
2023/01/04 00:09:00;;;;;;;0.10;0.10;;;;;;;11.98;100.00;98966.44;7395271;19;20014;-61
2023/01/04 00:11:27;;;;;;;0.10;0.10;;;;;;;12.09;100.00;98978.38;7395806;19;20035;-61
2023/01/04 00:13:57;;;;;;;0.00;0.00;;;;;;;12.12;100.00;98980.16;7395902;19;20011;-61
2023/01/04 00:16:24;;;;;;;0.43;0.00;;;;;;;12.09;100.00;98975.59;7395501;19;20015;-61
2023/01/04 00:18:52;;;;;;;0.00;0.00;;;;;;;12.09;100.00;98969.25;7394714;19;20076;-61
2023/01/04 00:21:27;;;;;;;0.00;0.00;;;;;;;12.10;100.00;98954.81;7395349;19;20361;-61
2023/01/04 00:23:55;;;;;;;1.08;0.00;;;;;;;12.11;100.00;98959.09;7398586;19;20043;-61
2023/01/04 00:26:25;;;;;;;0.00;0.00;;;;;;;12.10;100.00;98962.41;7398027;19;20006;-61
2023/01/04 00:28:56;;;;;;;0.10;0.00;;;;;;;12.17;100.00;98948.69;7394873;19;20425;-61
2023/01/04 00:31:22;;;;;;;;;;;;;;;12.16;100.00;98957.59;7395475;19;20108;-61
2023/01/04 00:33:51;;;;;;;0.00;0.00;;;;;;;12.18;100.00;98957.84;7394983;19;19919;-61
2023/01/04 00:36:18;;;;;;;0.00;0.00;;;;;;;12.11;100.00;98950.72;7394729;19;20432;-60
2023/01/04 00:38:44;;;;;;;0.00;0.00;;;;;;;12.13;100.00;98950.97;7397603;19;20374;-60
2023/01/04 00:41:11;;;;;;;0.00;0.00;;;;;;;12.14;100.00;98955.31;7395107;19;20007;-60
2023/01/04 00:43:37;;;;;;;0.00;0.00;;;;;;;12.15;100.00;98953.25;7395204;19;20023;-60
2023/01/04 00:46:05;;;;;;;0.00;0.00;;;;;;;12.16;100.00;98958.34;7394154;19;20022;-60
2023/01/04 00:48:32;;;;;;;0.40;0.10;;;;;;;12.16;100.00;98955.56;7395640;19;20066;-61
2023/01/04 00:50:59;;;;;;;0.00;0.00;;;;;;;12.16;100.00;98958.34;7393708;19;20366;-61
2023/01/04 00:53:25;;;;;;;0.00;0.00;;;;;;;12.12;100.00;98946.69;7393870;19;20019;-60
2023/01/04 00:55:51;;;;;;;0.00;0.00;;;;;;;12.08;100.00;98946.16;7394582;19;20023;-60
2023/01/04 00:58:17;;;;;;;0.00;0.00;;;;;;;12.07;100.00;98949.47;7393639;19;20019;-60
2023/01/04 01:00:43;;;;;;;0.00;0.00;;;;;;;12.05;100.00;98947.19;7394400;19;20031;-61
2023/01/04 01:03:09;;;;;;;0.00;0.00;;;;;;;12.05;100.00;98958.34;7395396;19;20014;-61
2023/01/04 01:05:35;;;;;;;0.00;0.00;;;;;;;12.02;100.00;98944.63;7394759;19;20074;-60
2023/01/04 01:08:23;;;;;;;0.00;0.00;;;;;;;12.05;100.00;98961.13;7394502;19;20397;-61
2023/01/04 01:10:48;;;;;;;0.00;0.00;;;;;;;12.03;100.00;98960.88;7394478;19;20668;-60
2023/01/04 01:13:15;;;;;;;1.40;0.05;;;;;;;12.02;100.00;98958.59;7396047;19;20018;-60
2023/01/04 01:15:41;;;;;;;0.00;0.00;;;;;;;11.99;100.00;98965.97;7391951;19;20018;-61
2023/01/04 01:18:07;;;;;;;0.00;0.00;;;;;;;12.06;100.00;98965.44;7393082;19;20058;-61
2023/01/04 01:20:34;;;;;;;0.00;0.00;;;;;;;12.09;100.00;98955.28;7394005;19;20021;-61
2023/01/04 01:23:00;;;;;;;0.00;0.00;;;;;;;12.11;100.00;98964.69;7394004;19;20021;-61
2023/01/04 01:25:26;;;;;;;0.00;0.00;;;;;;;12.09;100.00;98969.25;7395205;19;20010;-61
2023/01/04 01:27:52;;;;;;;0.00;0.00;;;;;;;12.11;100.00;98961.88;7392137;19;20086;-61
2023/01/04 01:30:18;;;;;;;0.00;0.00;;;;;;;12.08;100.00;98962.16;7389878;19;20015;-61
2023/01/04 01:32:44;;;;;;;0.00;0.00;;;;;;;12.07;100.00;98950.22;7389791;19;20011;-61
2023/01/04 01:35:11;;;;;;;0.00;0.00;;;;;;;12.05;100.00;98952.00;7392257;19;20010;-61
2023/01/04 01:37:37;;;;;;;0.00;0.00;;;;;;;11.99;100.00;98949.22;7392593;19;20014;-61
2023/01/04 01:40:04;;;;;;;0.20;0.20;;;;;;;11.95;100.00;98953.53;7391771;19;20014;-61
2023/01/04 01:42:30;;;;;;;0.00;0.00;;;;;;;11.95;100.00;98953.53;7395625;19;20066;-61
2023/01/04 01:44:59;;;;;;;0.00;0.00;;;;;;;11.98;100.00;98952.50;7393116;19;20014;-61
2023/01/04 01:47:36;;;;;;;0.10;0.10;;;;;;;12.00;100.00;98950.72;7396038;19;20086;-61
2023/01/04 01:50:09;;;;;;;0.00;0.00;;;;;;;11.99;100.00;98954.81;7396291;19;20043;-61
2023/01/04 01:52:37;;;;;;;0.00;0.00;;;;;;;12.01;100.00;98957.84;7396240;19;20035;-61
2023/01/04 01:55:08;;;;;;;0.00;0.00;;;;;;;12.06;100.00;98959.84;7396430;19;20031;-61
2023/01/04 01:57:36;;;;;;;0.00;0.00;;;;;;;12.01;100.00;98957.84;7391641;19;20368;-61
2023/01/04 02:00:12;;;;;;;0.00;0.00;;;;;;;12.06;100.00;98961.91;7390239;19;20369;-62
2023/01/04 02:03:16;;;;;;;0.00;0.00;;;;;;;12.12;100.00;98965.44;7390463;19;20375;-61
2023/01/04 02:05:44;;;;;;;0.00;0.00;;;;;;;12.05;100.00;98958.34;7389243;19;20041;-61
2023/01/04 02:08:12;;;;;;;0.00;0.00;;;;;;;11.94;100.00;98961.13;7394254;19;20018;-61
2023/01/04 02:10:38;;;;;;;0.00;0.00;;;;;;;11.81;100.00;98954.50;7391299;19;20777;-61
2023/01/04 02:13:09;;;;;;;0.00;0.00;;;;;;;11.77;100.00;98960.34;7394457;19;20424;-62
2023/01/04 02:15:56;;;;;;;0.00;0.00;;;;;;;11.72;100.00;98966.69;7390522;19;20534;-62
2023/01/04 02:18:36;;;;;;;0.00;0.00;;;;;;;11.79;100.00;98966.19;7391961;19;20434;-61
2023/01/04 02:21:13;;;;;;;0.10;0.10;;;;;;;11.77;100.00;98968.72;7390273;19;20017;-61
2023/01/04 02:23:59;;;;;;;0.00;0.00;;;;;;;11.79;100.00;98968.97;7393255;19;20511;-61
2023/01/04 02:26:31;;;;;;;0.00;0.00;;;;;;;11.82;100.00;98967.97;7394429;19;20019;-61
2023/01/04 02:29:20;;;;;;;0.00;0.00;;;;;;;11.86;100.00;98974.06;7389255;19;20046;-61
2023/01/04 02:31:57;;;;;;;0.00;0.00;;;;;;;11.83;100.00;98977.09;7391859;19;20018;-61
2023/01/04 02:34:52;;;;;;;0.00;0.00;;;;;;;11.87;100.00;98981.16;7395161;19;20046;-61
2023/01/04 02:37:26;;;;;;;0.00;0.00;;;;;;;11.87;100.00;98978.38;7393827;19;20025;-61
2023/01/04 02:40:05;;;;;;;0.00;0.00;;;;;;;11.87;100.00;98981.16;7394600;19;20015;-61
2023/01/04 02:45:44;;;;;;;0.00;0.00;;;;;;;11.91;100.00;98976.09;7394267;19;20006;-61
2023/01/04 02:50:57;;;;;;;0.00;0.00;;;;;;;11.83;100.00;98974.28;7396755;19;20106;-61
2023/01/04 02:53:36;;;;;;;0.00;0.00;;;;;;;11.74;100.00;98996.84;7396316;19;20007;-61
2023/01/04 02:56:36;;;;;;;0.00;0.00;;;;;;;11.75;100.00;98988.00;7393095;19;20092;-55
2023/01/04 02:59:33;;;;;;;0.05;0.00;;;;;;;11.72;100.00;98986.19;7394342;19;20467;-55
2023/01/04 03:08:43;;;;;;;0.00;0.00;;;;;;;11.95;100.00;98987.75;7393615;19;20010;-55
2023/01/04 03:14:06;;;;;;;0.38;0.20;;;;;;;11.98;100.00;98978.38;7390833;19;20035;-61
2023/01/04 03:16:35;;;;;;;0.00;0.00;;;;;;;12.21;100.00;98968.00;7389791;19;20022;-61
2023/01/04 03:19:08;;;;;;;0.22;0.00;;;;;;;12.11;100.00;98956.31;7389734;19;20015;-61
2023/01/04 03:21:37;;;;;;;0.00;0.00;;;;;;;12.01;100.00;98949.47;7387379;19;20018;-61
2023/01/04 03:35:21;;;;;;;0.00;0.00;;;;;;;14.72;100.00;98938.91;7393994;19;20015;-61
2023/01/04 03:36:28;;;;;;;0.00;0.00;;;;;;;13.24;100.00;98949.97;7389858;19;20032;-61
2023/01/04 03:48:28;;;;;;;0.00;0.00;;;;;;;12.89;100.00;98961.75;7391035;19;20036;-60
2023/01/04 03:51:02;;;;;;;0.43;0.20;;;;;;;12.80;100.00;98968.38;7388577;19;20040;-60
2023/01/04 03:53:30;;;;;;;0.00;0.00;;;;;;;12.81;100.00;98971.94;7387402;19;20015;-60
2023/01/04 03:55:57;;;;;;;1.35;0.20;;;;;;;12.80;100.00;98962.03;7387248;19;20022;-59
2023/01/04 03:58:24;;;;;;;0.00;0.00;;;;;;;12.74;100.00;98967.66;7391500;19;20018;-60
2023/01/04 04:00:51;;;;;;;0.00;0.00;;;;;;;12.70;100.00;98966.38;7389216;19;20002;-60
2023/01/04 04:03:17;;;;;;;0.00;0.00;;;;;;;12.72;100.00;98975.00;7387216;19;20010;-59
2023/01/04 04:08:29;;;;;;;0.00;0.00;;;;;;;12.68;100.00;98977.31;7391825;19;20081;-59
2023/01/04 04:11:29;;;;;;;0.10;0.10;;;;;;;12.65;100.00;98986.69;7388458;19;20018;-59
2023/01/04 04:13:48;;;;;;;0.13;0.13;;;;;;;12.56;100.00;98984.22;7387297;19;20897;-60
2023/01/04 04:16:15;;;;;;;0.63;0.08;;;;;;;12.52;100.00;98997.63;7388094;19;20018;-60
2023/01/04 04:18:41;;;;;;;0.00;0.00;;;;;;;12.50;100.00;99002.97;7391139;19;20018;-60
2023/01/04 04:21:07;;;;;;;0.00;0.00;;;;;;;12.52;100.00;99008.81;7387780;19;20021;-59
2023/01/04 04:23:34;;;;;;;0.43;0.10;;;;;;;12.55;100.00;99016.19;7388315;19;20018;-60
2023/01/04 04:26:00;;;;;;;0.00;0.00;;;;;;;12.44;100.00;99016.97;7391333;19;20011;-58
2023/01/04 04:28:26;;;;;;;0.00;0.00;;;;;;;12.30;100.00;99020.00;7389678;19;20015;-59
2023/01/04 04:30:52;;;;;;;0.00;0.00;;;;;;;12.15;100.00;99023.81;7386974;19;20010;-59
2023/01/04 04:33:18;;;;;;;0.00;0.00;;;;;;;12.02;100.00;99026.31;7388227;19;20019;-58
2023/01/04 04:35:49;;;;;;;6.90;0.25;;;;;;;12.06;100.00;99021.25;7386615;19;20006;-59
2023/01/04 04:38:15;;;;;;;0.38;0.20;;;;;;;11.95;100.00;99023.28;7390995;19;20031;-58
2023/01/04 04:43:26;;;;;;;0.00;0.00;;;;;;;11.94;100.00;99028.09;7388192;19;20031;-58
2023/01/04 04:45:52;;;;;;;0.10;0.10;;;;;;;11.77;100.00;99032.88;7386418;19;20018;-58
2023/01/04 04:48:18;;;;;;;0.00;0.00;;;;;;;11.50;100.00;99022.38;7389809;19;20755;-58
2023/01/04 04:50:44;;;;;;;0.00;0.00;;;;;;;11.39;100.00;99019.56;7387216;19;20567;-58
2023/01/04 04:53:10;;;;;;;0.43;0.10;;;;;;;11.16;100.00;99017.94;7392164;19;20021;-58
2023/01/04 04:55:37;;;;;;;0.00;0.00;;;;;;;11.09;100.00;99018.38;7393836;19;20120;-58
2023/01/04 04:58:03;;;;;;;0.00;0.00;;;;;;;11.07;100.00;99015.34;7397571;19;20015;-58
2023/01/04 05:00:29;;;;;;;0.00;0.00;;;;;;;11.28;100.00;99014.69;7392083;19;20052;-58
2023/01/04 05:02:59;;;;;;;0.00;0.00;;;;;;;11.18;100.00;99015.41;7394570;19;20007;-58
2023/01/04 05:05:25;;;;;;;0.65;0.43;;;;;;;11.09;100.00;99019.16;7394425;19;20019;-57
2023/01/04 05:07:52;;;;;;;8.77;0.40;;;;;;;11.04;100.00;99019.16;7394784;19;20460;-58
2023/01/04 05:10:18;;;;;;;0.00;0.00;;;;;;;10.96;100.00;99018.84;7394675;19;20034;-57
2023/01/04 05:12:59;;;;;;;2.65;0.80;;;;;;;10.84;100.00;99017.25;7394898;19;20018;-57
2023/01/04 05:15:32;;;;;;;0.10;0.10;;;;;;;10.80;100.00;99024.31;7393019;19;20344;-59
2023/01/04 05:17:59;;;;;;;0.00;0.00;;;;;;;10.81;100.00;99031.41;7395793;19;20348;-58
2023/01/04 05:20:25;;;;;;;0.00;0.00;;;;;;;10.80;100.00;99038.25;7391171;19;20007;-58
2023/01/04 05:22:51;;;;;;;0.00;0.00;;;;;;;10.79;100.00;99040.25;7393952;19;20110;-58
2023/01/04 05:25:18;;;;;;;0.00;0.00;;;;;;;10.82;100.00;99038.50;7394205;19;20018;-57
2023/01/04 05:27:44;;;;;;;0.03;0.00;;;;;;;10.83;100.00;99040.06;7394598;19;20021;-58
2023/01/04 05:32:57;;;;;;;4.78;0.47;;;;;;;10.86;100.00;99045.38;7393248;19;20082;-57
2023/01/04 05:35:23;;;;;;;0.10;0.10;;;;;;;10.90;100.00;99053.50;7393523;19;20045;-57
2023/01/04 05:37:49;;;;;;;1.60;0.38;;;;;;;10.93;100.00;99049.72;7396075;19;20467;-58
2023/01/04 05:40:16;;;;;;;0.20;0.20;;;;;;;10.99;100.00;99042.16;7391276;19;20097;-58
2023/01/04 05:42:42;;;;;;;0.32;0.32;;;;;;;11.13;100.00;99041.97;7392490;19;20011;-57
2023/01/04 05:45:09;;;;;;;0.00;0.00;;;;;;;11.16;100.00;99045.78;7393261;19;20011;-58
2023/01/04 05:47:35;;;;;;;0.10;0.10;;;;;;;11.15;100.00;99053.38;7394990;19;20006;-58
2023/01/04 05:50:02;;;;;;;9.52;0.52;;;;;;;11.14;100.00;99051.09;7393088;19;20029;-58
2023/01/04 05:52:29;;;;;;;0.03;0.03;;;;;;;11.14;100.00;99053.88;7391310;19;20019;-58
2023/01/04 05:54:55;;;;;;;0.00;0.00;;;;;;;11.15;100.00;99044.28;7392422;19;20459;-58
2023/01/04 05:57:21;;;;;;;3.83;0.75;;;;;;;11.17;100.00;99034.16;7394476;19;20022;-57
2023/01/04 05:59:47;;;;;;;0.30;0.20;;;;;;;11.16;100.00;99029.06;7389696;19;20739;-57
2023/01/04 06:02:18;;;;;;;0.20;0.20;;;;;;;11.20;100.00;99030.38;7392254;19;20014;-57
2023/01/04 06:04:45;;;;;;;0.25;0.10;;;;;;;11.21;100.00;99036.69;7392365;19;20034;-57
2023/01/04 06:07:11;;;;;;;0.32;0.32;;;;;;;11.20;100.00;99035.16;7392407;19;20014;-57
2023/01/04 06:09:38;;;;;;;3.10;0.38;;;;;;;11.30;100.00;99033.72;7391848;19;20352;-58
2023/01/04 06:12:04;;;;;;;0.10;0.10;;;;;;;11.34;100.00;99028.66;7392569;19;20018;-57
2023/01/04 06:14:31;;;;;;;4.38;0.40;;;;;;;11.34;100.00;99028.66;7391473;19;20019;-57
2023/01/04 06:16:58;;;;;;;0.52;0.20;;;;;;;11.39;100.00;99025.13;7390690;19;20092;-57
2023/01/04 06:19:24;;;;;;;0.25;0.25;;;;;;;11.51;100.00;99031.50;7390415;19;20007;-57
2023/01/04 06:21:50;;;;;;;0.20;0.20;;;;;;;11.50;100.00;99025.16;7390979;19;20014;-58
2023/01/04 06:24:17;;;;;;;0.95;0.70;;;;;;;11.56;100.00;99025.94;7390552;19;20018;-57
2023/01/04 06:26:44;;;;;;;15.70;0.77;;;;;;;11.62;100.00;99021.16;7396730;19;20014;-57
2023/01/04 06:29:10;;;;;;;0.65;0.47;;;;;;;11.71;100.00;99023.75;7396619;19;20026;-57
2023/01/04 06:31:36;;;;;;;7.22;1.45;;;;;;;11.62;100.00;99029.50;7391309;19;20010;-57
2023/01/04 06:34:02;;;;;;;10.30;0.38;;;;;;;11.69;100.00;99028.28;7390656;19;20464;-57
2023/01/04 06:36:29;;;;;;;6.13;0.70;;;;;;;11.63;100.00;99041.44;7390318;19;20022;-57
2023/01/04 06:38:57;;;;;;;3.65;0.30;;;;;;;11.57;100.00;99035.81;7394738;19;20011;-57
2023/01/04 06:41:23;;;;;;;4.28;1.98;;;;;;;11.56;100.00;99039.13;7391801;19;20013;-57
2023/01/04 06:43:50;;;;;;;0.00;0.00;;;;;;;11.55;100.00;99048.75;7391269;19;20034;-57
2023/01/04 06:46:16;;;;;;;1.15;0.57;;;;;;;11.54;100.00;99045.22;7391384;19;20078;-57
2023/01/04 06:48:42;;;;;;;0.65;0.65;;;;;;;11.51;100.00;99040.63;7394898;19;20073;-57
2023/01/04 06:51:08;;;;;;;4.18;1.00;;;;;;;11.52;100.00;99041.41;7390182;19;20014;-57
2023/01/04 06:53:34;;;;;;;0.38;0.10;;;;;;;11.56;100.00;99044.69;7390387;19;20026;-57
2023/01/04 06:56:00;;;;;;;0.40;0.20;;;;;;;11.60;100.00;99057.16;7389671;19;20018;-57
2023/01/04 06:58:27;;;;;;;3.50;1.02;;;;;;;11.63;100.00;99049.81;7391704;19;20033;-57
2023/01/04 07:00:54;;;;;;;3.20;1.08;;;;;;;11.58;100.00;99058.91;7391764;19;20352;-57
2023/01/04 07:03:20;;;;;;;1.98;0.85;;;;;;;11.56;100.00;99051.06;7392788;19;20010;-57
2023/01/04 07:05:47;;;;;;;4.35;1.27;;;;;;;11.58;100.00;99053.31;7391738;19;20015;-57
2023/01/04 07:08:14;;;;;;;1.60;0.68;;;;;;;11.64;100.00;99045.72;7391560;19;20421;-57
2023/01/04 07:10:40;;;;;;;14.63;2.33;;;;;;;11.62;100.00;99046.25;7394259;19;20002;-57
2023/01/04 07:13:07;;;;;;;15.27;1.20;;;;;;;11.42;100.00;99049.22;7391197;19;20026;-57
2023/01/04 07:15:34;;;;;;;5.15;1.02;;;;;;;11.35;100.00;99053.22;7391462;19;20114;-57
2023/01/04 07:18:00;;;;;;;4.20;0.45;;;;;;;11.46;100.00;99060.88;7393572;19;20031;-57
2023/01/04 07:20:26;;;;;;;2.03;0.85;;;;;;;11.52;100.00;99056.09;7391205;19;20054;-56
2023/01/04 07:22:52;;;;;;;0.32;0.32;;;;;;;11.55;100.00;99055.09;7390273;19;20466;-57
2023/01/04 07:25:19;;;;;;;8.80;1.00;;;;;;;11.45;100.00;99051.00;7392721;19;20022;-58
2023/01/04 07:27:52;;;;;;;6.85;1.73;;;;;;;11.38;100.00;99045.91;7391983;19;20014;-57
2023/01/04 07:30:20;;;;;;;0.30;0.20;;;;;;;11.24;100.00;99063.59;7391530;19;20018;-57
2023/01/04 07:32:47;;;;;;;7.20;0.93;;;;;;;11.34;100.00;99076.03;7391583;19;20025;-58
2023/01/04 07:35:13;;;;;;;3.20;0.28;;;;;;;11.30;100.00;99079.03;7390781;19;20116;-57
2023/01/04 07:37:42;;;;;;;0.50;0.10;;;;;;;11.21;100.00;99084.09;7391049;19;20070;-57
2023/01/04 07:40:09;;;;;;;5.70;1.27;;;;;;;11.04;100.00;99088.78;7390464;19;20014;-57
2023/01/04 07:42:35;;;;;;;0.98;0.47;;;;;;;10.95;100.00;99086.19;7390431;19;20006;-57
2023/01/04 07:45:03;;;;;;;1.25;0.28;;;;;;;10.88;100.00;99092.22;7392264;19;20014;-57
2023/01/04 07:47:30;;;;;;;3.08;0.95;;;;;;;10.84;100.00;99080.56;7391363;19;20365;-57
2023/01/04 07:49:57;;;;;;;0.20;0.20;;;;;;;10.70;100.00;99075.91;7390338;19;20388;-56
2023/01/04 07:52:23;;;;;;;4.35;0.73;;;;;;;10.64;100.00;99076.63;7389665;19;20015;-56
2023/01/04 07:54:49;;;;;;;4.25;1.95;;;;;;;10.59;100.00;99071.75;7389144;19;20010;-56
2023/01/04 07:57:16;;;;;;;4.32;0.30;;;;;;;10.54;100.00;99083.63;7389142;19;20039;-56
2023/01/04 07:59:42;;;;;;;2.20;0.75;;;;;;;10.52;100.00;99080.59;7388134;19;20009;-56
2023/01/04 08:02:11;;;;;;;0.10;0.10;;;;;;;10.39;100.00;99074.66;7388740;19;20014;-56
2023/01/04 08:04:37;;;;;;;5.25;1.05;;;;;;;10.15;100.00;99088.09;7389278;19;20022;-56
2023/01/04 08:07:04;;;;;;;5.10;0.55;;;;;;;10.92;100.00;99099.09;7389840;19;20024;-56
2023/01/04 08:09:30;;;;;;;0.10;0.10;;;;;;;10.64;100.00;99087.75;7386521;19;20006;-56
2023/01/04 08:11:57;;;;;;;10.65;1.55;;;;;;;10.47;100.00;99103.56;7388434;19;20002;-57
2023/01/04 08:14:23;;;;;;;0.20;0.00;;;;;;;10.38;100.00;99106.50;7386400;19;20014;-57
2023/01/04 08:16:49;;;;;;;1.25;0.75;;;;;;;10.47;100.00;99102.78;7388501;19;20036;-57
2023/01/04 08:19:18;;;;;;;0.45;0.32;;;;;;;10.47;100.00;99103.56;7389342;19;20796;-57
2023/01/04 08:21:45;;;;;;;0.75;0.38;;;;;;;10.59;100.00;99110.75;7390297;19;20007;-57
2023/01/04 08:24:16;;;;;;;1.17;0.95;;;;;;;10.65;100.00;99108.75;7388016;19;20007;-57
2023/01/04 08:26:44;;;;;;;2.50;0.45;;;;;;;10.66;100.00;99115.09;7392469;19;20015;-57
2023/01/04 08:29:10;;;;;;;2.00;0.47;;;;;;;10.73;100.00;99122.25;7399103;19;20067;-57
2023/01/04 08:31:37;;;;;;;0.73;0.32;;;;;;;10.78;100.00;99132.66;7394922;19;20027;-56
2023/01/04 08:34:05;;;;;;;0.35;0.25;;;;;;;10.83;100.00;99123.59;7392601;19;20070;-57
2023/01/04 08:36:34;;;;;;;7.78;1.45;;;;;;;10.78;100.00;99125.09;7394235;19;20007;-56
2023/01/04 08:39:03;;;;;;;0.73;0.30;;;;;;;10.78;100.00;99121.53;7397883;19;20019;-56
2023/01/04 08:41:32;;;;;;;1.05;0.30;;;;;;;10.75;100.00;99133.66;7393799;19;20123;-56
2023/01/04 08:43:58;;;;;;;0.10;0.10;;;;;;;10.74;100.00;99137.72;7391402;19;20344;-56
2023/01/04 08:46:24;;;;;;;3.13;0.52;;;;;;;10.71;100.00;99144.25;7395373;19;20079;-56
2023/01/04 08:48:51;;;;;;;0.65;0.20;;;;;;;10.81;100.00;99148.38;7398179;19;20360;-57
2023/01/04 08:51:17;;;;;;;0.25;0.20;;;;;;;10.77;100.00;99156.97;7392923;19;20017;-57
2023/01/04 08:53:44;;;;;;;1.35;0.50;;;;;;;10.80;100.00;99160.78;7395732;19;20484;-57
2023/01/04 08:56:10;;;;;;;0.30;0.20;;;;;;;10.82;100.00;99161.06;7394837;19;20406;-58
2023/01/04 08:58:37;;;;;;;0.25;0.25;;;;;;;10.77;100.00;99159.75;7398227;19;20014;-55
2023/01/04 09:01:06;;;;;;;0.43;0.10;;;;;;;10.81;100.00;99162.31;7393777;19;20011;-55
2023/01/04 09:03:33;;;;;;;0.63;0.13;;;;;;;10.84;100.00;99164.09;7399250;19;20030;-55
2023/01/04 09:06:08;;;;;;;1.63;0.63;;;;;;;10.83;100.00;99162.59;7398876;19;20043;-55
2023/01/04 09:08:36;;;;;;;1.10;0.45;;;;;;;10.82;100.00;99167.41;7397456;19;20027;-55
2023/01/04 09:11:04;;;;;;;0.70;0.35;;;;;;;10.82;100.00;99167.41;7398280;19;20391;-56
2023/01/04 09:13:32;;;;;;;5.43;1.60;;;;;;;10.84;100.00;99164.09;7393928;19;20006;-55
2023/01/04 09:16:00;;;;;;;2.85;0.52;;;;;;;10.95;100.00;99169.78;7393610;19;20014;-55
2023/01/04 09:18:27;;;;;;;0.20;0.20;;;;;;;11.02;100.00;99160.97;7396976;19;20358;-55
2023/01/04 09:20:53;;;;;;;9.00;0.65;;;;;;;11.04;100.00;99169.59;7392197;19;20014;-55
2023/01/04 09:23:19;;;;;;;0.32;0.28;;;;;;;11.07;100.00;99177.72;7393534;19;20015;-55
2023/01/04 09:25:45;;;;;;;0.13;0.00;;;;;;;11.11;100.00;99177.50;7395052;19;20348;-55
2023/01/04 09:28:11;;;;;;;19.48;1.90;;;;;;;11.17;100.00;99186.66;7396672;19;20010;-55
2023/01/04 09:30:37;;;;;;;14.38;0.82;;;;;;;11.19;100.00;99184.16;7393967;19;20031;-56
2023/01/04 09:33:04;;;;;;;1.20;0.60;;;;;;;11.32;100.00;99192.84;7394012;19;20027;-55
2023/01/04 09:35:30;;;;;;;1.52;0.63;;;;;;;11.36;100.00;99196.94;7392966;19;20104;-55
2023/01/04 09:37:56;;;;;;;5.47;0.30;;;;;;;11.30;100.00;99200.94;7394025;19;20015;-55
2023/01/04 09:40:31;;;;;;;9.52;0.90;;;;;;;11.45;100.00;99195.97;7391117;19;20019;-56
2023/01/04 09:43:01;;;;;;;0.10;0.00;;;;;;;12.11;100.00;99201.91;7393381;19;20015;-56
2023/01/04 09:45:27;;;;;;;1.30;0.93;;;;;;;13.02;100.00;99188.38;7392618;19;20014;-56
2023/01/04 09:48:11;;;;;;;4.13;0.38;;;;;;;12.65;100.00;99191.41;7395099;19;20014;-56
2023/01/04 09:51:04;;;;;;;0.38;0.20;;;;;;;11.62;100.00;99205.22;7393075;19;20010;-54
2023/01/04 09:53:41;;;;;;;2.67;1.05;;;;;;;11.60;100.00;99213.31;7390928;19;20019;-55
2023/01/04 09:56:19;;;;;;;5.00;0.50;;;;;;;11.44;100.00;99211.16;7392070;19;20010;-56
2023/01/04 09:58:46;;;;;;;1.27;0.20;;;;;;;11.78;100.00;99215.72;7395498;19;20014;-56
2023/01/04 10:01:16;;;;;;;5.18;0.55;;;;;;;13.17;100.00;99210.50;7392950;19;20006;-56
2023/01/04 10:04:18;;;;;;;0.35;0.20;;;;;;;13.08;100.00;99225.50;7392598;19;20040;-55
2023/01/04 10:06:44;;;;;;;0.65;0.22;;;;;;;12.90;100.00;99221.16;7392134;19;20015;-56
2023/01/04 10:09:13;;;;;;;1.00;0.50;;;;;;;12.62;100.00;99220.34;7395496;19;20034;-57
2023/01/04 10:11:39;;;;;;;2.00;0.55;;;;;;;12.41;100.00;99219.00;7391967;19;20053;-56
2023/01/04 10:14:36;;;;;;;1.85;1.20;;;;;;;12.25;100.00;99235.72;7394524;19;20014;-56
2023/01/04 10:17:32;;;;;;;0.65;0.25;;;;;;;12.14;100.00;99231.63;7393008;19;20022;-57
2023/01/04 10:20:23;;;;;;;6.70;0.95;;;;;;;12.02;100.00;99234.84;7390696;19;20040;-56
2023/01/04 10:23:02;;;;;;;4.80;0.70;;;;;;;11.97;100.00;99249.56;7391563;19;20018;-56
2023/01/04 10:25:32;;;;;;;2.22;0.88;;;;;;;11.90;100.00;99250.78;7393876;19;20021;-55
2023/01/04 10:28:35;;;;;;;0.30;0.10;;;;;;;11.86;100.00;99253.06;7393977;19;20009;-56
2023/01/04 10:31:05;;;;;;;18.25;1.40;;;;;;;11.82;100.00;99258.09;7392408;19;20035;-56
2023/01/04 10:33:31;;;;;;;8.10;1.40;;;;;;;11.80;100.00;99268.97;7391098;19;20046;-56
2023/01/04 10:35:58;;;;;;;1.77;0.15;;;;;;;11.75;100.00;99255.78;7390483;19;20010;-56
2023/01/04 10:38:32;;;;;;;0.10;0.10;;;;;;;11.69;100.00;99266.16;7394952;19;20511;-55
2023/01/04 10:41:04;;;;;;;2.20;1.33;;;;;;;11.66;100.00;99272.69;7391136;19;20017;-55
2023/01/04 10:44:05;;;;;;;1.33;0.90;;;;;;;11.74;100.00;99273.75;7391310;19;20011;-56
2023/01/04 10:47:08;;;;;;;6.03;0.65;;;;;;;11.86;100.00;99272.59;7387146;19;20359;-55
2023/01/04 10:49:48;;;;;;;0.70;0.55;;;;;;;11.91;100.00;99277.41;7384911;19;20010;-56
2023/01/04 10:52:40;;;;;;;7.22;0.40;;;;;;;11.84;100.00;99289.06;7389466;19;20026;-56
2023/01/04 10:55:37;;;;;;;6.03;0.77;;;;;;;11.86;100.00;99280.97;7390378;19;20069;-55
2023/01/04 10:58:55;;;;;;;13.05;0.95;;;;;;;11.94;100.00;99276.44;7392568;19;20066;-56
2023/01/04 11:01:52;;;;;;;10.57;0.50;;;;;;;12.11;100.00;99280.06;7390271;19;20015;-56
2023/01/04 11:04:25;;;;;;;9.90;0.75;;;;;;;12.17;100.00;99288.50;7388328;19;20022;-56
2023/01/04 11:07:06;;;;;;;0.32;0.32;;;;;;;12.10;100.00;99284.16;7390593;19;20015;-56
2023/01/04 11:09:43;;;;;;;2.47;0.65;;;;;;;12.13;100.00;99283.13;7389111;19;20053;-56
2023/01/04 11:12:17;;;;;;;0.68;0.13;;;;;;;12.15;100.00;99286.19;7389566;19;20007;-56
2023/01/04 11:14:44;;;;;;;1.80;0.60;;;;;;;12.10;100.00;99283.38;7390288;19;20082;-55
2023/01/04 11:17:11;;;;;;;13.35;0.82;;;;;;;12.01;100.00;99278.00;7390365;19;20364;-55
2023/01/04 11:19:38;;;;;;;1.58;0.40;;;;;;;11.99;100.00;99283.31;7389145;19;20017;-55
2023/01/04 11:22:19;;;;;;;4.53;1.10;;;;;;;12.03;100.00;99278.25;7389475;19;20756;-56
2023/01/04 11:24:50;;;;;;;2.08;0.10;;;;;;;12.17;100.00;99272.47;7390976;19;20043;-56
2023/01/04 11:27:21;;;;;;;0.80;0.17;;;;;;;11.96;100.00;99278.72;7391135;19;20007;-55
2023/01/04 11:30:04;;;;;;;0.68;0.22;;;;;;;11.95;100.00;99277.94;7389328;19;20074;-56
2023/01/04 11:32:52;;;;;;;0.22;0.22;;;;;;;11.98;100.00;99270.59;7388850;19;20356;-56
2023/01/04 11:35:50;;;;;;;4.63;0.50;;;;;;;12.08;100.00;99255.94;7389525;19;20362;-55
2023/01/04 11:38:16;;;;;;;4.43;1.40;;;;;;;12.15;100.00;99252.69;7390094;19;20010;-55
2023/01/04 11:41:04;;;;;;;8.93;1.08;;;;;;;12.14;100.00;99256.75;7387756;19;20026;-55
2023/01/04 11:43:34;;;;;;;0.82;0.10;;;;;;;12.23;100.00;99241.03;7390210;19;20010;-55
2023/01/04 11:46:23;;;;;;;19.30;2.65;;;;;;;12.26;100.00;99242.84;7388043;19;20006;-55
2023/01/04 11:48:50;;;;;;;2.28;0.70;;;;;;;12.41;100.00;99241.34;7392552;19;20082;-55
2023/01/04 11:51:28;;;;;;;4.68;0.47;;;;;;;12.49;100.00;99230.47;7387991;19;20036;-56
2023/01/04 11:54:21;;;;;;;0.75;0.47;;;;;;;12.46;100.00;99237.06;7386319;19;20010;-56
2023/01/04 11:56:57;;;;;;;2.38;1.00;;;;;;;12.52;100.00;99246.97;7388555;19;20019;-56
2023/01/04 11:59:23;;;;;;;12.95;0.50;;;;;;;12.55;100.00;99239.63;7387849;19;20013;-55
2023/01/04 12:01:51;;;;;;;6.63;0.93;;;;;;;12.61;100.00;99237.59;7392203;19;20015;-55
2023/01/04 12:04:22;;;;;;;1.67;0.32;;;;;;;12.52;100.00;99246.22;7397015;19;20028;-55
2023/01/04 12:07:01;;;;;;;6.97;0.60;;;;;;;12.52;100.00;99249.00;7397254;19;20028;-55
2023/01/04 12:09:29;;;;;;;8.23;0.93;;;;;;;12.55;100.00;99243.19;7395426;19;20018;-55
2023/01/04 12:12:00;;;;;;;2.10;0.15;;;;;;;12.53;100.00;99247.75;7396074;19;20049;-55
2023/01/04 12:14:36;;;;;;;2.40;0.75;;;;;;;12.52;100.00;99262.97;7395626;19;20468;-55
2023/01/04 12:17:11;;;;;;;6.03;1.27;;;;;;;12.53;100.00;99264.50;7397734;19;20028;-55
2023/01/04 12:19:43;;;;;;;6.93;1.13;;;;;;;12.50;100.00;99260.69;7394930;19;20015;-55
2023/01/04 12:22:21;;;;;;;2.78;0.63;;;;;;;12.48;100.00;99265.25;7394295;19;20018;-55
2023/01/04 12:24:48;;;;;;;1.13;0.75;;;;;;;12.52;100.00;99263.72;7395966;19;20030;-55